Time;durP1;ratioP1;P1;durP2;ratioP2;P2;SDS_P1;SDS_P2;PMS_P1;PMS_P2;Temp;Humidity;BMP_temperature;BMP_pressure;BME280_temperature;BME280_humidity;BME280_pressure;Samples;Min_cycle;Max_cycle;Signal;HPM_P1;HPM_P2
2021/12/18 00:02:12;;;;;;;0.75;0.70;;;11.30;84.20;;;;;;5154944;27;20046;-59
2021/12/18 00:04:39;;;;;;;0.80;0.80;;;11.30;84.90;;;;;;5164717;27;20493;-58
2021/12/18 00:07:05;;;;;;;0.73;0.63;;;11.30;84.20;;;;;;5163710;27;20478;-59
2021/12/18 00:09:32;;;;;;;0.80;0.70;;;11.30;84.80;;;;;;5138749;27;20046;-59
2021/12/18 00:11:59;;;;;;;0.85;0.80;;;11.30;84.30;;;;;;5158865;27;20046;-61
2021/12/18 00:14:25;;;;;;;1.08;0.73;;;11.30;84.20;;;;;;5138921;27;20070;-58
2021/12/18 00:16:51;;;;;;;0.55;0.55;;;11.30;84.20;;;;;;5175817;27;20134;-58
2021/12/18 00:19:23;;;;;;;0.93;0.90;;;11.30;84.20;;;;;;5159690;27;20509;-55
2021/12/18 00:21:49;;;;;;;0.90;0.80;;;11.30;84.20;;;;;;5165102;27;20046;-58
2021/12/18 00:24:15;;;;;;;1.15;0.85;;;11.30;84.20;;;;;;5177889;27;20046;-59
2021/12/18 00:26:40;;;;;;;0.63;0.63;;;11.30;84.20;;;;;;5178078;27;20038;-56
2021/12/18 00:29:06;;;;;;;1.45;0.80;;;11.30;84.20;;;;;;5178254;27;20038;-58
2021/12/18 00:31:32;;;;;;;0.73;0.63;;;11.30;84.20;;;;;;5178243;27;20121;-58
2021/12/18 00:33:57;;;;;;;0.95;0.80;;;11.30;84.10;;;;;;5174398;27;20042;-58
2021/12/18 00:36:23;;;;;;;0.82;0.70;;;11.30;84.20;;;;;;5157255;27;20034;-59
2021/12/18 00:38:49;;;;;;;0.50;0.47;;;11.30;84.20;;;;;;5157503;27;20078;-58
2021/12/18 00:44:03;;;;;;;0.95;0.80;;;11.20;84.00;;;;;;5158349;27;20046;-58
2021/12/18 00:46:39;;;;;;;0.60;0.60;;;11.30;84.10;;;;;;5157242;27;20490;-56
2021/12/18 00:49:07;;;;;;;0.70;0.70;;;11.30;84.80;;;;;;5175814;27;20145;-58
2021/12/18 00:51:33;;;;;;;1.10;0.80;;;11.30;84.20;;;;;;5177846;27;20066;-57
2021/12/18 00:53:59;;;;;;;0.80;0.70;;;11.40;84.20;;;;;;5176481;27;20049;-58
2021/12/18 00:56:25;;;;;;;0.80;0.73;;;11.30;84.10;;;;;;5177475;27;20038;-60
2021/12/18 00:58:51;;;;;;;0.40;0.40;;;11.20;84.00;;;;;;5158700;27;20559;-48
2021/12/18 01:01:20;;;;;;;0.98;0.70;;;11.30;84.10;;;;;;5162320;27;20042;-60
2021/12/18 01:03:48;;;;;;;0.75;0.57;;;11.30;84.10;;;;;;5177719;27;20042;-57
2021/12/18 01:06:15;;;;;;;0.82;0.68;;;11.30;84.10;;;;;;5160922;27;20039;-61
2021/12/18 01:08:41;;;;;;;1.10;0.80;;;11.30;84.10;;;;;;5157600;27;20073;-59
2021/12/18 01:16:22;;;;;;;1.20;0.80;;;11.30;84.10;;;;;;5157880;27;20046;-60
2021/12/18 01:24:16;;;;;;;0.57;0.57;;;11.30;84.00;;;;;;5174299;27;20050;-60
2021/12/18 01:26:42;;;;;;;1.23;0.73;;;11.30;84.00;;;;;;5157805;27;20039;-60
2021/12/18 01:29:08;;;;;;;0.88;0.60;;;11.30;84.00;;;;;;5156125;27;20141;-58
2021/12/18 01:31:34;;;;;;;1.33;0.85;;;11.30;84.10;;;;;;5156214;27;20474;-60
2021/12/18 01:33:59;;;;;;;0.85;0.75;;;11.30;84.00;;;;;;5157565;27;20103;-56
2021/12/18 01:36:27;;;;;;;0.73;0.60;;;11.30;84.10;;;;;;5174624;27;20046;-61
2021/12/18 01:38:53;;;;;;;0.57;0.57;;;11.20;84.00;;;;;;5175155;27;20170;-60
2021/12/18 01:41:19;;;;;;;1.05;0.70;;;11.30;84.70;;;;;;5176668;27;20050;-60
2021/12/18 01:54:23;;;;;;;1.10;0.70;;;11.30;84.00;;;;;;5156177;27;20106;-58
2021/12/18 01:56:49;;;;;;;0.85;0.82;;;11.30;84.00;;;;;;5157127;27;20390;-60
2021/12/18 01:59:15;;;;;;;0.68;0.60;;;11.30;84.00;;;;;;5155661;27;20559;-60
2021/12/18 02:01:41;;;;;;;0.68;0.60;;;11.30;84.00;;;;;;5155640;27;20482;-59
2021/12/18 02:04:06;;;;;;;0.75;0.60;;;11.30;84.00;;;;;;5153470;27;20042;-56
2021/12/18 02:06:32;;;;;;;0.68;0.57;;;11.30;84.00;;;;;;5176381;27;20038;-60
2021/12/18 02:08:58;;;;;;;1.30;0.90;;;11.30;84.00;;;;;;5174372;27;20082;-60
2021/12/18 02:11:31;;;;;;;0.80;0.60;;;11.30;84.00;;;;;;5175906;27;20489;-60
2021/12/18 02:22:01;;;;;;;0.95;0.70;;;11.30;84.00;;;;;;5155172;27;20074;-60
2021/12/18 02:24:29;;;;;;;0.70;0.57;;;11.30;84.00;;;;;;5155230;27;20041;-59
2021/12/18 02:26:55;;;;;;;0.73;0.68;;;11.30;84.00;;;;;;5155356;27;20105;-60
2021/12/18 02:29:21;;;;;;;1.55;0.90;;;11.30;84.00;;;;;;5172882;27;20545;-58
2021/12/18 02:31:47;;;;;;;1.05;0.82;;;11.30;84.00;;;;;;5175330;27;20397;-58
2021/12/18 02:34:22;;;;;;;0.82;0.70;;;11.20;83.90;;;;;;5155203;27;20443;-58
2021/12/18 02:36:49;;;;;;;0.70;0.70;;;11.30;84.00;;;;;;5139564;27;20102;-54
2021/12/18 02:39:22;;;;;;;0.60;0.60;;;11.30;84.00;;;;;;5156707;27;20035;-56
2021/12/18 02:44:33;;;;;;;0.73;0.50;;;11.30;84.00;;;;;;5155015;27;20058;-59
2021/12/18 02:46:58;;;;;;;1.13;0.73;;;11.30;84.00;;;;;;5173568;27;20034;-59
2021/12/18 02:49:25;;;;;;;0.60;0.60;;;11.30;84.00;;;;;;5157492;27;20051;-59
2021/12/18 02:51:51;;;;;;;0.77;0.60;;;11.30;84.00;;;;;;5173384;27;20039;-59
2021/12/18 02:54:16;;;;;;;0.90;0.60;;;11.30;84.00;;;;;;5175778;27;20090;-58
2021/12/18 02:56:42;;;;;;;1.05;0.82;;;11.30;84.00;;;;;;5156377;27;20042;-59
2021/12/18 02:59:09;;;;;;;0.63;0.60;;;11.30;83.90;;;;;;5175571;27;20098;-57
2021/12/18 03:01:38;;;;;;;1.23;0.73;;;11.30;83.90;;;;;;5142077;27;20046;-54
2021/12/18 03:04:15;;;;;;;0.80;0.52;;;11.30;84.00;;;;;;5169462;27;20129;-58
2021/12/18 03:06:45;;;;;;;1.02;0.60;;;11.30;83.90;;;;;;5156201;27;20038;-57
2021/12/18 03:09:44;;;;;;;0.88;0.75;;;11.30;83.90;;;;;;5175333;27;20049;-57
2021/12/18 03:25:37;;;;;;;0.70;0.60;;;11.20;83.90;;;;;;5088168;28;20047;-57
2021/12/18 03:28:06;;;;;;;0.95;0.70;;;11.20;83.90;;;;;;5090024;28;20056;-62
2021/12/18 03:30:33;;;;;;;0.60;0.45;;;11.30;83.90;;;;;;5089154;28;20040;-60
2021/12/18 03:33:00;;;;;;;0.95;0.70;;;11.30;83.90;;;;;;5070974;28;20507;-61
2021/12/18 03:35:26;;;;;;;0.40;0.40;;;11.30;83.90;;;;;;5069642;28;20440;-60
2021/12/18 03:37:52;;;;;;;0.60;0.60;;;11.30;83.90;;;;;;5077398;28;20173;-60
2021/12/18 03:40:21;;;;;;;0.57;0.57;;;11.30;83.90;;;;;;5089655;28;20554;-60
2021/12/18 03:42:47;;;;;;;0.75;0.57;;;11.30;83.90;;;;;;5088038;28;20040;-61
2021/12/18 03:45:15;;;;;;;0.85;0.80;;;11.30;83.90;;;;;;5085092;28;20044;-60
2021/12/18 03:47:42;;;;;;;0.52;0.52;;;11.30;83.90;;;;;;5069987;28;20431;-58
2021/12/18 03:50:08;;;;;;;0.85;0.70;;;11.20;83.80;;;;;;5069853;28;20041;-60
2021/12/18 03:52:34;;;;;;;0.50;0.50;;;11.30;83.90;;;;;;5052299;28;20094;-60
2021/12/18 03:54:59;;;;;;;0.63;0.55;;;11.30;83.80;;;;;;5145840;27;20050;-59
2021/12/18 03:57:26;;;;;;;0.75;0.60;;;11.30;83.90;;;;;;5153563;27;20043;-61
2021/12/18 03:59:52;;;;;;;0.57;0.57;;;11.20;83.80;;;;;;5153899;27;20086;-60
2021/12/18 04:02:17;;;;;;;0.68;0.52;;;11.30;83.90;;;;;;5154517;27;20070;-56
2021/12/18 04:04:43;;;;;;;0.40;0.40;;;11.30;83.90;;;;;;5170541;27;20512;-60
2021/12/18 04:07:09;;;;;;;0.43;0.43;;;11.20;83.80;;;;;;5174033;27;20516;-61
2021/12/18 04:09:35;;;;;;;0.70;0.65;;;11.20;83.80;;;;;;5155307;27;20056;-60
2021/12/18 04:12:02;;;;;;;0.43;0.43;;;11.30;83.80;;;;;;5174250;27;20043;-59
2021/12/18 04:14:28;;;;;;;0.63;0.50;;;11.30;83.80;;;;;;5155224;27;20042;-60
2021/12/18 04:16:53;;;;;;;0.60;0.60;;;11.30;83.80;;;;;;5150900;27;20141;-60
2021/12/18 04:19:19;;;;;;;0.47;0.47;;;11.20;83.80;;;;;;5153469;27;20043;-60
2021/12/18 04:21:46;;;;;;;0.52;0.50;;;11.30;83.90;;;;;;5143521;27;20053;-59
2021/12/18 04:24:12;;;;;;;0.85;0.60;;;11.30;83.80;;;;;;5160008;27;20099;-58
2021/12/18 04:26:38;;;;;;;0.63;0.50;;;11.20;83.70;;;;;;5166104;27;20038;-58
2021/12/18 04:29:06;;;;;;;0.60;0.60;;;11.20;83.80;;;;;;5173994;27;20056;-59
2021/12/18 04:31:36;;;;;;;0.50;0.50;;;11.30;83.80;;;;;;5174254;27;20098;-60
2021/12/18 04:34:02;;;;;;;0.75;0.70;;;11.20;83.80;;;;;;5174477;27;20116;-60
2021/12/18 04:36:28;;;;;;;0.88;0.60;;;11.30;83.80;;;;;;5161296;27;20088;-60
2021/12/18 04:38:54;;;;;;;0.65;0.60;;;11.30;83.80;;;;;;5154378;27;20070;-56
2021/12/18 04:41:34;;;;;;;1.00;0.60;;;11.30;83.80;;;;;;5135106;27;20062;-55
2021/12/18 04:44:00;;;;;;;0.55;0.43;;;11.30;83.80;;;;;;5153471;27;20051;-51
2021/12/18 04:46:26;;;;;;;0.50;0.50;;;11.20;83.70;;;;;;5156897;27;20038;-56
2021/12/18 04:48:52;;;;;;;0.50;0.50;;;11.30;83.80;;;;;;5174115;27;20049;-57
2021/12/18 04:51:17;;;;;;;0.77;0.70;;;11.30;83.80;;;;;;5155084;27;20039;-57
2021/12/18 04:53:43;;;;;;;0.52;0.50;;;11.20;83.70;;;;;;5155542;27;20046;-57
2021/12/18 04:56:09;;;;;;;0.75;0.50;;;11.30;83.80;;;;;;5158106;27;20061;-56
2021/12/18 04:58:35;;;;;;;0.63;0.50;;;11.20;83.70;;;;;;5175470;27;20058;-56
2021/12/18 05:01:00;;;;;;;1.08;0.68;;;11.30;83.80;;;;;;5177774;27;20358;-56
2021/12/18 05:03:26;;;;;;;0.70;0.70;;;11.20;83.70;;;;;;5165429;27;20054;-57
2021/12/18 05:05:52;;;;;;;1.30;0.50;;;11.30;83.80;;;;;;5147356;27;20051;-56
2021/12/18 05:08:18;;;;;;;0.68;0.60;;;11.30;83.80;;;;;;5168013;27;20053;-55
2021/12/18 05:10:43;;;;;;;0.40;0.40;;;11.30;83.70;;;;;;5156826;27;20039;-57
2021/12/18 05:13:09;;;;;;;0.55;0.55;;;11.20;83.70;;;;;;5157054;27;20035;-56
2021/12/18 05:15:35;;;;;;;0.60;0.60;;;11.30;83.80;;;;;;5164361;27;20077;-56
2021/12/18 05:18:00;;;;;;;0.80;0.60;;;11.20;83.70;;;;;;5175735;27;20130;-56
2021/12/18 05:20:26;;;;;;;0.43;0.43;;;11.30;83.80;;;;;;5177432;27;20077;-56
2021/12/18 05:22:52;;;;;;;0.80;0.70;;;11.30;83.70;;;;;;5177793;27;20046;-56
2021/12/18 05:25:18;;;;;;;0.47;0.47;;;11.30;83.70;;;;;;5172286;27;20058;-56
2021/12/18 05:27:43;;;;;;;0.47;0.47;;;11.20;83.70;;;;;;5157037;27;20046;-56
2021/12/18 05:30:11;;;;;;;0.75;0.57;;;11.30;83.70;;;;;;5175202;27;20038;-57
2021/12/18 05:32:37;;;;;;;0.82;0.63;;;11.30;83.80;;;;;;5159626;27;20049;-54
2021/12/18 05:35:04;;;;;;;0.70;0.57;;;11.30;83.80;;;;;;5157566;27;20039;-57
2021/12/18 05:37:42;;;;;;;0.90;0.73;;;11.30;83.70;;;;;;5156476;27;20066;-56
2021/12/18 05:40:09;;;;;;;0.60;0.60;;;11.30;83.80;;;;;;5157378;27;20486;-55
2021/12/18 05:42:35;;;;;;;0.65;0.65;;;11.20;83.70;;;;;;5170458;27;20122;-54
2021/12/18 05:45:01;;;;;;;1.08;0.65;;;11.30;83.70;;;;;;5176270;27;20085;-56
2021/12/18 05:47:26;;;;;;;0.80;0.60;;;11.30;83.80;;;;;;5176968;27;20146;-59
2021/12/18 05:49:52;;;;;;;0.93;0.93;;;11.20;83.70;;;;;;5175465;27;20550;-56
2021/12/18 05:52:17;;;;;;;0.52;0.50;;;11.30;83.70;;;;;;5158268;27;20454;-59
2021/12/18 05:54:43;;;;;;;0.68;0.60;;;11.30;83.70;;;;;;5157668;27;20038;-59
2021/12/18 05:57:14;;;;;;;0.60;0.55;;;11.20;83.60;;;;;;5176544;27;20042;-59
2021/12/18 05:59:40;;;;;;;0.80;0.70;;;11.20;83.70;;;;;;5167143;27;20051;-59
2021/12/18 06:02:06;;;;;;;1.15;0.68;;;11.30;83.70;;;;;;5170091;27;20445;-58
2021/12/18 06:04:32;;;;;;;0.70;0.70;;;11.30;83.70;;;;;;5176402;27;20046;-54
2021/12/18 06:07:04;;;;;;;1.15;0.90;;;11.20;83.70;;;;;;5159185;27;20390;-59
2021/12/18 06:09:31;;;;;;;1.55;0.80;;;11.30;83.80;;;;;;5155488;27;20039;-59
2021/12/18 06:11:58;;;;;;;0.93;0.73;;;11.20;83.70;;;;;;5154275;27;20071;-59
2021/12/18 06:14:24;;;;;;;1.08;0.80;;;11.20;83.70;;;;;;5141322;27;20049;-59
2021/12/18 06:16:50;;;;;;;0.98;0.60;;;11.20;83.70;;;;;;5174040;27;20118;-58
2021/12/18 06:19:15;;;;;;;0.80;0.70;;;11.20;83.70;;;;;;5176614;27;20083;-56
2021/12/18 06:21:42;;;;;;;0.73;0.70;;;11.30;83.80;;;;;;5174367;27;20038;-58
2021/12/18 06:24:07;;;;;;;0.55;0.50;;;11.30;83.70;;;;;;5175965;27;20114;-59
2021/12/18 06:26:33;;;;;;;1.25;0.93;;;11.30;83.70;;;;;;5175936;27;20487;-58
2021/12/18 06:28:59;;;;;;;1.13;0.80;;;11.30;83.70;;;;;;5163603;27;20370;-59
2021/12/18 06:31:25;;;;;;;0.90;0.70;;;11.30;83.70;;;;;;5164141;27;20035;-58
2021/12/18 06:33:51;;;;;;;1.00;0.82;;;11.20;83.60;;;;;;5167730;27;20095;-58
2021/12/18 06:36:17;;;;;;;0.90;0.60;;;11.30;83.80;;;;;;5155396;27;20039;-59
2021/12/18 06:38:46;;;;;;;1.05;0.82;;;11.30;83.70;;;;;;5161526;27;20117;-56
2021/12/18 06:41:14;;;;;;;0.82;0.50;;;11.20;83.60;;;;;;5176092;27;20038;-59
2021/12/18 06:43:39;;;;;;;1.15;0.68;;;11.50;83.80;;;;;;5175649;27;20109;-56
2021/12/18 06:46:06;;;;;;;1.00;0.70;;;11.30;83.80;;;;;;5175713;27;20049;-58
2021/12/18 06:48:32;;;;;;;1.08;0.75;;;11.30;83.80;;;;;;5175205;27;20050;-56
2021/12/18 06:50:58;;;;;;;0.70;0.70;;;11.20;83.70;;;;;;5155513;27;20046;-57
2021/12/18 06:53:24;;;;;;;1.63;0.75;;;11.30;83.70;;;;;;5165230;27;20188;-58
2021/12/18 06:55:49;;;;;;;0.77;0.77;;;11.20;83.60;;;;;;5168568;27;20038;-60
2021/12/18 06:58:15;;;;;;;1.02;0.73;;;11.20;83.60;;;;;;5137473;27;20095;-58
2021/12/18 07:00:41;;;;;;;1.20;0.60;;;11.20;83.70;;;;;;5145147;27;20084;-60
2021/12/18 07:03:07;;;;;;;1.10;0.75;;;11.30;83.70;;;;;;5134204;27;20390;-59
2021/12/18 07:05:33;;;;;;;0.98;0.60;;;11.30;83.70;;;;;;5150106;27;20035;-56
2021/12/18 07:07:59;;;;;;;0.75;0.65;;;11.20;83.60;;;;;;5135605;27;20047;-57
2021/12/18 07:10:24;;;;;;;0.98;0.65;;;11.30;83.70;;;;;;5152400;27;20071;-57
2021/12/18 07:12:50;;;;;;;1.05;0.70;;;11.20;83.70;;;;;;5142505;27;20386;-57
2021/12/18 07:15:15;;;;;;;0.70;0.57;;;11.30;83.70;;;;;;5154514;27;20382;-55
2021/12/18 07:17:42;;;;;;;0.82;0.70;;;11.30;83.70;;;;;;5140619;27;20120;-57
2021/12/18 07:20:09;;;;;;;1.20;0.80;;;11.30;83.70;;;;;;5114511;27;20112;-58
2021/12/18 07:22:35;;;;;;;1.05;0.73;;;11.30;83.70;;;;;;5133466;27;20126;-56
2021/12/18 07:25:01;;;;;;;0.88;0.73;;;11.30;83.70;;;;;;5133708;27;20035;-58
2021/12/18 07:27:29;;;;;;;1.75;0.95;;;11.30;83.70;;;;;;5133765;27;20443;-59
2021/12/18 07:29:55;;;;;;;0.85;0.77;;;11.30;83.70;;;;;;5148426;27;20047;-58
2021/12/18 07:32:21;;;;;;;0.70;0.70;;;11.30;83.70;;;;;;5154069;27;20042;-57
2021/12/18 07:34:46;;;;;;;1.05;0.68;;;11.40;83.70;;;;;;5152159;27;20035;-53
2021/12/18 07:37:12;;;;;;;1.00;0.80;;;11.30;83.70;;;;;;5154002;27;20466;-55
2021/12/18 07:39:38;;;;;;;0.77;0.70;;;11.20;83.60;;;;;;5152146;27;20041;-58
2021/12/18 07:42:04;;;;;;;0.77;0.70;;;11.20;83.60;;;;;;5153755;27;20046;-55
2021/12/18 07:44:29;;;;;;;1.40;0.70;;;11.30;83.60;;;;;;5151375;27;20055;-59
2021/12/18 07:46:55;;;;;;;1.65;0.70;;;11.30;83.70;;;;;;5151976;27;20187;-59
2021/12/18 07:49:21;;;;;;;0.60;0.60;;;11.30;83.70;;;;;;5151315;27;20039;-59
2021/12/18 07:51:46;;;;;;;0.50;0.50;;;11.30;83.70;;;;;;5152612;27;20034;-58
2021/12/18 07:54:12;;;;;;;0.85;0.63;;;11.30;83.70;;;;;;5153391;27;20119;-57
2021/12/18 07:56:38;;;;;;;1.10;0.70;;;11.30;83.70;;;;;;5153681;27;20066;-56
2021/12/18 07:59:04;;;;;;;0.98;0.75;;;11.30;83.70;;;;;;5165667;27;20042;-55
2021/12/18 08:01:30;;;;;;;0.70;0.70;;;11.20;83.60;;;;;;5175083;27;20042;-56
2021/12/18 08:03:56;;;;;;;0.70;0.70;;;11.30;83.70;;;;;;5156153;27;20050;-56
2021/12/18 08:06:21;;;;;;;1.38;0.70;;;11.30;83.70;;;;;;5138548;27;20067;-57
2021/12/18 08:08:48;;;;;;;0.80;0.65;;;11.30;83.70;;;;;;5156253;27;20482;-57
2021/12/18 08:11:15;;;;;;;0.80;0.70;;;11.20;83.60;;;;;;5154217;27;20047;-57
2021/12/18 08:13:42;;;;;;;1.75;0.80;;;11.20;83.60;;;;;;5175069;27;20482;-56
2021/12/18 08:16:07;;;;;;;1.08;0.60;;;11.30;83.70;;;;;;5156501;27;20049;-57
2021/12/18 08:18:34;;;;;;;1.17;0.68;;;11.40;83.70;;;;;;5174634;27;20066;-59
2021/12/18 08:20:59;;;;;;;2.22;0.80;;;11.30;83.60;;;;;;5173169;27;20042;-59
2021/12/18 08:23:25;;;;;;;0.60;0.60;;;11.30;83.70;;;;;;5154664;27;20273;-57
2021/12/18 08:25:52;;;;;;;1.27;0.80;;;11.30;83.70;;;;;;5174773;27;20050;-60
2021/12/18 08:28:18;;;;;;;0.90;0.60;;;11.30;83.70;;;;;;5138858;27;20045;-57
2021/12/18 08:30:43;;;;;;;1.65;0.70;;;11.30;83.70;;;;;;5178255;27;20396;-59
2021/12/18 08:33:09;;;;;;;0.80;0.63;;;11.30;83.60;;;;;;5157995;27;20038;-56
2021/12/18 08:35:35;;;;;;;0.68;0.60;;;11.30;83.60;;;;;;5159796;27;20393;-55
2021/12/18 08:38:02;;;;;;;1.13;0.60;;;11.20;84.20;;;;;;5177822;27;20489;-59
2021/12/18 08:40:29;;;;;;;0.95;0.70;;;11.30;83.70;;;;;;5159689;27;20066;-57
2021/12/18 08:42:55;;;;;;;0.73;0.73;;;11.30;83.60;;;;;;5157968;27;20098;-58
2021/12/18 08:45:21;;;;;;;0.85;0.70;;;11.30;83.70;;;;;;5178727;27;20129;-57
2021/12/18 08:47:47;;;;;;;0.60;0.52;;;11.30;83.60;;;;;;5159227;27;20038;-59
2021/12/18 08:50:17;;;;;;;0.47;0.47;;;11.30;83.70;;;;;;5159716;27;20124;-58
2021/12/18 08:52:43;;;;;;;1.38;0.70;;;11.30;84.30;;;;;;5176810;27;20030;-60
2021/12/18 08:55:09;;;;;;;0.85;0.70;;;11.30;83.60;;;;;;5159325;27;20573;-60
2021/12/18 08:57:35;;;;;;;0.80;0.60;;;11.30;83.70;;;;;;5159608;27;20125;-60
2021/12/18 09:00:00;;;;;;;1.13;0.50;;;11.30;83.70;;;;;;5178393;27;20462;-59
2021/12/18 09:02:26;;;;;;;0.80;0.80;;;11.30;83.60;;;;;;5178662;27;20396;-58
2021/12/18 09:04:52;;;;;;;0.70;0.70;;;11.40;83.70;;;;;;5157706;27;20085;-58
2021/12/18 09:07:18;;;;;;;0.82;0.60;;;11.30;83.60;;;;;;5178144;27;20077;-59
2021/12/18 09:09:44;;;;;;;0.88;0.63;;;11.30;83.60;;;;;;5178035;27;20443;-59
2021/12/18 09:12:11;;;;;;;0.95;0.60;;;11.30;83.60;;;;;;5158954;27;20042;-59
2021/12/18 09:14:39;;;;;;;0.60;0.50;;;11.30;83.60;;;;;;5176194;27;20394;-60
2021/12/18 09:17:07;;;;;;;0.73;0.60;;;11.30;83.60;;;;;;5178099;27;20042;-60
2021/12/18 09:19:33;;;;;;;1.27;0.70;;;11.30;83.60;;;;;;5178214;27;20040;-58
2021/12/18 09:21:59;;;;;;;0.52;0.45;;;11.30;83.60;;;;;;5177844;27;20477;-59
2021/12/18 09:24:25;;;;;;;2.45;1.08;;;11.30;83.60;;;;;;5175767;27;20505;-56
2021/12/18 09:26:51;;;;;;;2.05;1.00;;;11.30;83.60;;;;;;5177177;27;20039;-55
2021/12/18 09:29:18;;;;;;;0.75;0.47;;;11.30;83.60;;;;;;5177597;27;20042;-57
2021/12/18 09:31:45;;;;;;;0.70;0.70;;;11.30;83.60;;;;;;5177875;27;20050;-57
2021/12/18 09:34:10;;;;;;;0.82;0.70;;;11.30;83.60;;;;;;5177945;27;20070;-58
2021/12/18 09:36:36;;;;;;;1.02;0.80;;;11.30;83.60;;;;;;5175936;27;20461;-58
2021/12/18 09:39:03;;;;;;;1.88;0.80;;;11.30;83.60;;;;;;5177773;27;20394;-57
2021/12/18 09:41:29;;;;;;;1.98;0.88;;;11.30;83.60;;;;;;5176813;27;20068;-57
2021/12/18 09:43:55;;;;;;;1.60;0.70;;;11.30;83.70;;;;;;5177321;27;20091;-57
2021/12/18 09:46:21;;;;;;;0.80;0.40;;;11.20;83.60;;;;;;5175976;27;20038;-58
2021/12/18 09:48:47;;;;;;;1.75;0.80;;;11.30;83.60;;;;;;5158627;27;20379;-56
2021/12/18 09:51:23;;;;;;;0.68;0.63;;;11.30;83.60;;;;;;5177626;27;20082;-57
2021/12/18 09:53:51;;;;;;;1.05;0.70;;;11.30;83.60;;;;;;5176722;27;20062;-57
2021/12/18 09:56:17;;;;;;;0.85;0.80;;;11.20;83.50;;;;;;5175367;27;20042;-55
2021/12/18 09:58:43;;;;;;;1.10;0.60;;;11.30;83.60;;;;;;5176676;27;20058;-57
2021/12/18 10:01:09;;;;;;;0.77;0.77;;;11.10;83.50;;;;;;5176969;27;20370;-57
2021/12/18 10:03:41;;;;;;;0.57;0.57;;;11.30;83.60;;;;;;5177324;27;20049;-57
2021/12/18 10:06:43;;;;;;;0.50;0.50;;;11.30;83.60;;;;;;5177119;27;20103;-58
2021/12/18 10:09:09;;;;;;;0.70;0.60;;;11.30;83.50;;;;;;5176600;27;20042;-56
2021/12/18 10:11:50;;;;;;;1.48;0.80;;;11.30;83.60;;;;;;5176933;27;20494;-57
2021/12/18 10:14:18;;;;;;;0.90;0.73;;;11.30;83.60;;;;;;5176425;27;20042;-56
2021/12/18 10:16:54;;;;;;;1.17;0.60;;;11.30;83.60;;;;;;5176917;27;20046;-57
2021/12/18 10:19:24;;;;;;;0.93;0.80;;;11.30;83.60;;;;;;5174660;27;20114;-55
2021/12/18 10:22:07;;;;;;;0.98;0.77;;;11.30;83.60;;;;;;5176881;27;20401;-57
2021/12/18 10:24:35;;;;;;;0.88;0.70;;;11.30;83.60;;;;;;5176579;27;20043;-57
2021/12/18 10:27:15;;;;;;;1.05;0.75;;;11.30;83.70;;;;;;5176795;27;20045;-57
2021/12/18 10:29:41;;;;;;;0.82;0.80;;;11.30;83.60;;;;;;5175365;27;20432;-58
2021/12/18 10:32:16;;;;;;;0.88;0.80;;;11.30;84.30;;;;;;5176268;27;20082;-56
2021/12/18 10:34:56;;;;;;;0.88;0.75;;;11.30;83.60;;;;;;5176526;27;20046;-57
2021/12/18 10:37:24;;;;;;;1.42;0.60;;;11.30;83.60;;;;;;5176383;27;20115;-57
2021/12/18 10:39:50;;;;;;;1.88;1.00;;;11.30;83.60;;;;;;5174609;27;20038;-59
2021/12/18 10:42:46;;;;;;;0.77;0.77;;;11.30;83.60;;;;;;5175985;27;20073;-59
2021/12/18 10:45:22;;;;;;;1.35;0.80;;;11.30;83.60;;;;;;5175806;27;20046;-60
2021/12/18 10:48:08;;;;;;;1.15;0.50;;;11.30;83.60;;;;;;5175341;27;20038;-58
2021/12/18 10:50:39;;;;;;;1.15;0.70;;;11.30;83.60;;;;;;5173942;27;20045;-58
2021/12/18 10:53:14;;;;;;;2.90;0.70;;;11.30;83.60;;;;;;5174313;27;20048;-58
2021/12/18 10:55:55;;;;;;;0.60;0.60;;;11.30;83.60;;;;;;5175685;27;20170;-57
2021/12/18 10:58:20;;;;;;;1.83;0.70;;;11.30;83.60;;;;;;5175253;27;20046;-57
2021/12/18 11:00:51;;;;;;;0.93;0.70;;;11.30;83.70;;;;;;5173555;27;20050;-57
2021/12/18 11:03:24;;;;;;;1.52;0.70;;;11.30;83.60;;;;;;5175012;27;20074;-57
2021/12/18 11:06:27;;;;;;;0.90;0.60;;;11.30;83.60;;;;;;5175289;27;20117;-58
2021/12/18 11:09:12;;;;;;;1.10;0.60;;;11.30;83.50;;;;;;5156434;27;20046;-58
2021/12/18 11:14:16;;;;;;;0.88;0.80;;;11.20;83.60;;;;;;5175008;27;20046;-57
2021/12/18 11:16:44;;;;;;;0.88;0.77;;;11.30;83.60;;;;;;5175197;27;20482;-57
2021/12/18 11:19:13;;;;;;;1.15;0.57;;;11.30;83.60;;;;;;5174803;27;20366;-57
2021/12/18 11:21:44;;;;;;;1.58;0.90;;;11.30;83.60;;;;;;5173048;27;20071;-58
2021/12/18 11:24:11;;;;;;;1.20;0.65;;;11.30;83.60;;;;;;5175008;27;20034;-58
2021/12/18 11:26:57;;;;;;;0.88;0.70;;;11.30;83.60;;;;;;5174986;27;20484;-58
2021/12/18 11:29:26;;;;;;;;;;;11.30;83.60;;;;;;5175621;27;20053;-57
2021/12/18 11:31:52;;;;;;;0.85;0.60;;;11.30;83.60;;;;;;5173172;27;19923;-57
2021/12/18 11:34:18;;;;;;;0.77;0.68;;;11.30;83.70;;;;;;5174439;27;20454;-57
2021/12/18 11:36:47;;;;;;;0.90;0.70;;;11.30;83.60;;;;;;5175154;27;20151;-57
2021/12/18 11:39:15;;;;;;;1.48;0.93;;;11.30;83.60;;;;;;5156372;27;20094;-57
2021/12/18 11:41:49;;;;;;;0.63;0.63;;;11.30;83.70;;;;;;5174504;27;20449;-56
2021/12/18 11:44:27;;;;;;;1.75;0.80;;;11.30;83.60;;;;;;5174493;27;20486;-58
2021/12/18 11:46:54;;;;;;;1.05;0.63;;;11.30;83.60;;;;;;5175568;27;20057;-57
2021/12/18 11:49:21;;;;;;;0.50;0.50;;;11.30;83.60;;;;;;5174531;27;20073;-56
2021/12/18 11:52:02;;;;;;;1.05;0.60;;;11.30;83.60;;;;;;5174448;27;20042;-57
2021/12/18 11:54:51;;;;;;;1.85;0.70;;;11.30;83.60;;;;;;5172658;27;20130;-55
2021/12/18 11:57:35;;;;;;;0.75;0.60;;;11.30;83.50;;;;;;5174745;27;20042;-56
2021/12/18 12:00:01;;;;;;;0.85;0.50;;;11.30;83.50;;;;;;5155736;27;20404;-57
2021/12/18 12:02:46;;;;;;;0.60;0.45;;;11.30;83.60;;;;;;5174528;27;20050;-57
2021/12/18 12:05:13;;;;;;;0.60;0.60;;;11.30;83.50;;;;;;5176677;27;20399;-57
2021/12/18 12:07:40;;;;;;;1.48;0.65;;;11.30;83.60;;;;;;5178454;27;20130;-57
2021/12/18 12:10:10;;;;;;;0.65;0.50;;;11.30;83.60;;;;;;5178809;27;20580;-57
2021/12/18 12:12:56;;;;;;;1.08;0.82;;;11.30;83.60;;;;;;5178701;27;20518;-57
2021/12/18 12:15:31;;;;;;;1.20;0.57;;;11.30;83.50;;;;;;5176885;27;20661;-58
2021/12/18 12:17:59;;;;;;;0.80;0.50;;;11.30;83.60;;;;;;5178519;27;20122;-59
2021/12/18 12:20:39;;;;;;;1.90;0.80;;;11.30;83.60;;;;;;5178503;27;20042;-56
2021/12/18 12:23:06;;;;;;;0.63;0.63;;;11.30;83.60;;;;;;5177922;27;20487;-58
2021/12/18 12:25:39;;;;;;;0.63;0.60;;;11.30;83.60;;;;;;5176788;27;20138;-57
2021/12/18 12:28:22;;;;;;;0.65;0.65;;;11.30;83.60;;;;;;5178365;27;20052;-59
2021/12/18 12:31:04;;;;;;;0.95;0.70;;;11.30;83.60;;;;;;5178243;27;20125;-57
2021/12/18 12:33:35;;;;;;;0.63;0.60;;;11.30;83.60;;;;;;5178356;27;20569;-57
2021/12/18 12:36:05;;;;;;;1.17;0.90;;;11.30;83.60;;;;;;5176717;27;20038;-59
2021/12/18 12:38:58;;;;;;;1.92;0.90;;;11.30;83.60;;;;;;5177988;27;20454;-58
2021/12/18 12:41:36;;;;;;;1.52;0.80;;;11.30;83.50;;;;;;5178348;27;20059;-58
2021/12/18 12:44:24;;;;;;;0.95;0.80;;;11.30;83.60;;;;;;5177997;27;20374;-58
2021/12/18 12:47:09;;;;;;;1.95;0.85;;;11.30;83.50;;;;;;5174712;27;20038;-59
2021/12/18 12:49:35;;;;;;;1.38;0.77;;;11.30;83.50;;;;;;5177853;27;20049;-58
2021/12/18 12:52:08;;;;;;;2.35;0.85;;;11.40;83.70;;;;;;5178026;27;20038;-58
2021/12/18 12:54:53;;;;;;;1.95;1.08;;;11.30;83.60;;;;;;5177687;27;20077;-57
2021/12/18 12:57:28;;;;;;;0.73;0.73;;;11.30;83.60;;;;;;5176118;27;20039;-57
2021/12/18 13:00:16;;;;;;;2.05;0.90;;;11.30;83.60;;;;;;5177470;27;20058;-60
2021/12/18 13:02:53;;;;;;;1.45;0.70;;;11.30;83.60;;;;;;5177712;27;20042;-61
2021/12/18 13:05:19;;;;;;;1.35;0.98;;;11.30;83.60;;;;;;5177771;27;20121;-60
2021/12/18 13:07:46;;;;;;;1.23;0.70;;;11.30;83.60;;;;;;5175894;27;20049;-60
2021/12/18 13:10:23;;;;;;;0.85;0.60;;;11.40;83.60;;;;;;5176965;27;20042;-61
2021/12/18 13:12:53;;;;;;;0.82;0.70;;;11.30;83.60;;;;;;5177676;27;20038;-55
2021/12/18 13:15:20;;;;;;;2.35;0.70;;;11.30;83.60;;;;;;5176446;27;20042;-61
2021/12/18 13:17:46;;;;;;;0.80;0.75;;;11.30;83.60;;;;;;5175758;27;20054;-60
2021/12/18 13:20:12;;;;;;;1.17;0.60;;;11.30;83.60;;;;;;5177619;27;20115;-60
2021/12/18 13:22:37;;;;;;;1.17;0.70;;;11.40;83.70;;;;;;5177320;27;20038;-57
2021/12/18 13:25:05;;;;;;;0.77;0.60;;;11.30;83.60;;;;;;5176990;27;20049;-60
2021/12/18 13:27:31;;;;;;;0.93;0.65;;;11.30;83.50;;;;;;5177363;27;20034;-59
2021/12/18 13:30:18;;;;;;;1.23;0.73;;;11.40;83.60;;;;;;5175579;27;20477;-59
2021/12/18 13:32:55;;;;;;;0.63;0.57;;;11.30;83.50;;;;;;5177483;27;20078;-58
2021/12/18 13:35:24;;;;;;;1.67;0.77;;;11.30;83.50;;;;;;5177569;27;20038;-59
2021/12/18 13:37:58;;;;;;;0.88;0.65;;;11.30;83.50;;;;;;5177317;27;20086;-61
2021/12/18 13:40:26;;;;;;;0.87;0.50;;;11.30;83.50;;;;;;5175757;27;20057;-60
2021/12/18 13:43:05;;;;;;;1.45;0.73;;;11.40;83.60;;;;;;5176857;27;20443;-59
2021/12/18 13:45:31;;;;;;;0.82;0.65;;;11.40;83.50;;;;;;5177540;27;20042;-60
2021/12/18 13:48:03;;;;;;;0.70;0.70;;;11.30;83.50;;;;;;5158416;27;20046;-59